createdAt,value
2022-09-27T00:01:48.849Z,10.23
2022-09-27T00:05:13.644Z,10.13
2022-09-27T00:08:36.866Z,8.85
2022-09-27T00:11:58.827Z,13.02
2022-09-27T00:15:21.423Z,13.85
2022-09-27T00:18:43.454Z,14.45
2022-09-27T00:22:05.503Z,14.07
2022-09-27T00:25:27.448Z,14.50
2022-09-27T00:28:56.769Z,13.68
2022-09-27T00:32:18.841Z,14.38
2022-09-27T00:35:41.993Z,15.05
2022-09-27T00:39:04.214Z,11.68
2022-09-27T00:42:26.432Z,16.67
2022-09-27T00:45:53.052Z,12.75
2022-09-27T00:49:33.456Z,13.38
2022-09-27T00:52:58.719Z,12.57
2022-09-27T00:56:24.869Z,12.73
2022-09-27T00:59:52.557Z,11.45
2022-09-27T01:03:38.874Z,10.75
2022-09-27T01:07:00.915Z,12.35
2022-09-27T01:10:25.520Z,11.82
2022-09-27T01:14:06.705Z,10.98
2022-09-27T01:17:50.142Z,12.27
2022-09-27T01:21:35.360Z,14.48
2022-09-27T01:25:29.452Z,13.45
2022-09-27T01:29:00.656Z,12.70
2022-09-27T01:32:45.431Z,15.52
2022-09-27T01:36:12.059Z,14.15
2022-09-27T01:39:57.345Z,11.23
2022-09-27T01:43:33.184Z,16.92
2022-09-27T01:47:00.113Z,14.20
2022-09-27T01:50:48.632Z,14.50
2022-09-27T01:54:15.522Z,14.32
2022-09-27T01:58:13.425Z,14.75
2022-09-27T02:01:40.439Z,13.13
2022-09-27T02:05:06.806Z,15.50
2022-09-27T02:08:38.622Z,16.60
2022-09-27T02:12:13.335Z,14.18
2022-09-27T02:15:58.890Z,16.88
2022-09-27T02:19:49.220Z,13.38
2022-09-27T02:23:31.503Z,16.02
2022-09-27T02:27:10.265Z,17.70
2022-09-27T02:30:32.608Z,16.13
2022-09-27T02:34:25.216Z,21.27
2022-09-27T02:37:47.939Z,19.45
2022-09-27T02:41:18.067Z,17.73
2022-09-27T02:48:25.025Z,20.35
2022-09-27T02:52:08.325Z,19.98
2022-09-27T02:55:49.275Z,21.63
2022-09-27T03:00:07.265Z,24.45
2022-09-27T03:03:55.869Z,17.42
2022-09-27T03:07:18.530Z,29.52
2022-09-27T03:10:40.519Z,20.20
2022-09-27T03:14:08.708Z,21.55
2022-09-27T03:17:37.518Z,20.60
2022-09-27T03:21:18.193Z,22.23
2022-09-27T03:24:40.296Z,20.73
2022-09-27T03:28:02.440Z,16.75
2022-09-27T03:31:24.673Z,16.85
2022-09-27T03:35:22.692Z,16.98
2022-09-27T03:38:44.700Z,17.02
2022-09-27T03:42:11.141Z,21.00
2022-09-27T03:45:38.052Z,16.83
2022-09-27T03:49:04.105Z,19.90
2022-09-27T03:52:26.074Z,20.75
2022-09-27T03:55:48.156Z,23.55
2022-09-27T03:59:10.229Z,21.92
2022-09-27T04:02:52.438Z,21.17
2022-09-27T04:06:19.009Z,22.67
2022-09-27T04:09:44.815Z,24.52
2022-09-27T04:13:07.305Z,26.15
2022-09-27T04:16:36.015Z,32.70
2022-09-27T04:20:16.016Z,31.10
2022-09-27T04:23:38.615Z,30.35
2022-09-27T04:27:01.352Z,30.08
2022-09-27T04:30:23.798Z,29.75
2022-09-27T04:34:08.405Z,36.50
2022-09-27T04:37:31.288Z,34.05
2022-09-27T04:40:57.312Z,35.03
2022-09-27T04:44:20.241Z,35.25
2022-09-27T04:47:50.352Z,30.25
2022-09-27T04:51:13.215Z,26.58
2022-09-27T04:54:35.735Z,28.13
2022-09-27T04:58:06.464Z,25.75
2022-09-27T05:01:28.685Z,27.90
2022-09-27T05:05:11.086Z,28.42
2022-09-27T05:08:36.457Z,29.70
2022-09-27T05:12:26.883Z,27.48
2022-09-27T05:15:52.903Z,24.73
2022-09-27T05:19:42.216Z,29.10
2022-09-27T05:23:14.055Z,26.27
2022-09-27T05:26:37.530Z,27.23
2022-09-27T05:30:01.949Z,28.00
2022-09-27T05:33:36.946Z,25.75
2022-09-27T05:37:19.375Z,28.42
2022-09-27T05:40:44.442Z,26.98
2022-09-27T05:44:07.453Z,27.60
2022-09-27T05:47:34.378Z,27.45
2022-09-27T05:50:58.210Z,29.25
2022-09-27T05:54:22.803Z,26.98
2022-09-27T05:58:00.246Z,26.30
2022-09-27T06:01:35.835Z,26.58
2022-09-27T06:05:36.615Z,28.83
2022-09-27T06:12:27.405Z,27.55
2022-09-27T06:15:51.056Z,27.38
2022-09-27T06:19:13.541Z,30.50
2022-09-27T06:22:37.027Z,31.85
2022-09-27T06:26:05.285Z,26.50
2022-09-27T06:29:47.110Z,22.92
2022-09-27T06:33:25.569Z,57.13
2022-09-27T06:36:51.595Z,35.28
2022-09-27T06:40:14.709Z,19.83
2022-09-27T06:43:51.725Z,23.45
2022-09-27T06:47:36.941Z,19.45
2022-09-27T06:51:28.030Z,21.02
2022-09-27T06:54:50.996Z,20.48
2022-09-27T06:58:40.617Z,18.35
2022-09-27T07:02:31.009Z,18.95
2022-09-27T07:06:29.145Z,18.85
2022-09-27T07:09:58.587Z,15.43
2022-09-27T07:13:23.941Z,15.82
2022-09-27T07:16:51.252Z,8.68
2022-09-27T07:20:15.604Z,7.65
2022-09-27T07:23:37.706Z,3.85
2022-09-27T07:27:05.299Z,6.55
2022-09-27T07:30:29.624Z,5.97
2022-09-27T07:33:52.896Z,5.55
2022-09-27T07:37:15.055Z,1.92
2022-09-27T07:40:41.261Z,2.05
2022-09-27T07:44:08.350Z,1.10
2022-09-27T07:47:43.573Z,2.42
2022-09-27T07:51:16.821Z,1.60
2022-09-27T07:54:50.868Z,2.22
2022-09-27T07:58:29.327Z,1.20
2022-09-27T08:01:56.213Z,3.78
2022-09-27T08:05:21.094Z,2.22
2022-09-27T08:08:45.613Z,3.53
2022-09-27T08:12:08.802Z,0.80
2022-09-27T08:15:39.635Z,0.93
2022-09-27T08:19:03.025Z,1.20
2022-09-27T08:26:29.105Z,3.13
2022-09-27T08:29:59.721Z,1.40
2022-09-27T08:33:23.108Z,3.25
2022-09-27T08:36:46.086Z,1.88
2022-09-27T08:40:18.211Z,4.65
2022-09-27T08:43:41.755Z,2.33
2022-09-27T08:47:49.107Z,2.97
2022-09-27T08:51:14.698Z,3.65
2022-09-27T08:54:38.863Z,5.22
2022-09-27T08:58:02.679Z,3.15
2022-09-27T09:01:29.189Z,4.15
2022-09-27T09:05:13.307Z,3.88
2022-09-27T09:08:47.438Z,4.05
2022-09-27T09:12:49.134Z,5.07
2022-09-27T09:17:06.751Z,5.13
2022-09-27T09:20:48.337Z,3.30
2022-09-27T09:24:21.303Z,6.45
2022-09-27T09:28:08.822Z,6.65
2022-09-27T09:32:08.221Z,4.10
2022-09-27T09:35:55.662Z,5.35
2022-09-27T09:39:33.505Z,4.95
2022-09-27T09:43:05.562Z,4.18
2022-09-27T09:46:45.526Z,6.03
2022-09-27T09:50:36.727Z,6.00
2022-09-27T09:54:25.105Z,6.60
2022-09-27T09:58:06.162Z,6.72
2022-09-27T10:01:47.625Z,6.82
2022-09-27T10:05:17.526Z,8.15
2022-09-27T10:08:43.237Z,5.72
2022-09-27T10:12:26.548Z,7.53
2022-09-27T10:16:03.276Z,8.07
2022-09-27T10:19:36.625Z,6.85
2022-09-27T10:23:12.328Z,10.45
2022-09-27T10:26:52.198Z,8.10
2022-09-27T10:30:36.049Z,8.68
2022-09-27T10:34:08.331Z,7.45
2022-09-27T10:37:43.136Z,7.07
2022-09-27T10:41:40.307Z,7.75
2022-09-27T10:45:24.914Z,11.82
2022-09-27T10:49:21.182Z,8.38
2022-09-27T10:52:45.710Z,6.75
2022-09-27T10:56:26.902Z,7.25
2022-09-27T10:59:59.888Z,8.90
2022-09-27T11:03:26.131Z,8.45
2022-09-27T11:06:51.121Z,8.90
2022-09-27T11:10:30.491Z,6.65
2022-09-27T11:14:24.862Z,6.90
2022-09-27T11:17:55.122Z,9.70
2022-09-27T11:22:02.166Z,8.40
2022-09-27T11:25:58.153Z,6.65
2022-09-27T11:29:32.807Z,10.23
2022-09-27T11:33:29.789Z,8.38
2022-09-27T11:37:05.748Z,9.13
2022-09-27T11:41:11.809Z,7.90
2022-09-27T11:45:13.442Z,8.80
2022-09-27T11:49:08.623Z,10.40
2022-09-27T11:53:01.818Z,8.02
2022-09-27T11:56:52.347Z,8.68
2022-09-27T12:00:29.062Z,8.80
2022-09-27T12:04:29.987Z,9.48
2022-09-27T12:07:53.136Z,9.60
2022-09-27T12:11:25.442Z,12.02
2022-09-27T12:15:30.324Z,10.50
2022-09-27T12:18:55.266Z,8.85
2022-09-27T12:23:22.688Z,8.50
2022-09-27T12:27:20.904Z,9.43
2022-09-27T12:30:55.062Z,11.38
2022-09-27T12:34:58.920Z,11.60
2022-09-27T12:39:00.528Z,10.55
2022-09-27T12:42:39.621Z,10.77
2022-09-27T12:46:23.001Z,9.85
2022-09-27T12:50:24.055Z,16.70
2022-09-27T12:54:14.107Z,10.70
2022-09-27T12:57:59.041Z,10.63
2022-09-27T13:01:46.587Z,14.95
2022-09-27T13:05:52.316Z,17.50
2022-09-27T13:09:46.529Z,11.18
2022-09-27T13:13:17.561Z,13.05
2022-09-27T13:16:49.094Z,9.07
2022-09-27T13:20:33.272Z,12.15
2022-09-27T13:24:00.249Z,11.05
2022-09-27T13:27:37.117Z,14.65
2022-09-27T13:31:15.318Z,10.38
2022-09-27T13:34:56.662Z,17.02
2022-09-27T13:38:42.452Z,23.02
2022-09-27T13:42:27.893Z,16.83
2022-09-27T13:45:59.281Z,12.63
2022-09-27T13:49:32.414Z,61.88
2022-09-27T13:53:37.721Z,43.55
2022-09-27T13:57:01.461Z,14.13
2022-09-27T14:00:33.070Z,90.95
2022-09-27T14:04:18.672Z,12.30
2022-09-27T14:07:46.880Z,17.48
2022-09-27T14:11:19.789Z,13.23
2022-09-27T14:14:55.944Z,10.93
2022-09-27T14:18:20.358Z,12.68
2022-09-27T14:21:43.411Z,16.40
2022-09-27T14:25:27.323Z,16.02
2022-09-27T14:28:50.500Z,11.93
2022-09-27T14:32:38.822Z,12.40
2022-09-27T14:36:38.825Z,12.82
2022-09-27T14:40:19.237Z,14.35
2022-09-27T14:43:51.047Z,14.23
2022-09-27T14:47:25.566Z,15.73
2022-09-27T14:51:00.078Z,14.20
2022-09-27T14:54:30.098Z,18.70
2022-09-27T14:57:59.387Z,15.50
2022-09-27T15:01:21.935Z,15.07
2022-09-27T15:04:47.525Z,18.88
2022-09-27T15:08:12.918Z,15.15
2022-09-27T15:11:35.476Z,21.08
2022-09-27T15:15:00.761Z,19.83
2022-09-27T15:18:40.286Z,16.30
2022-09-27T15:22:24.331Z,18.70
2022-09-27T15:26:07.447Z,18.55
2022-09-27T15:29:31.176Z,15.90
2022-09-27T15:32:56.873Z,17.20
2022-09-27T15:36:48.184Z,12.98
2022-09-27T15:40:18.161Z,17.58
2022-09-27T15:43:46.000Z,15.65
2022-09-27T15:47:51.917Z,13.70
2022-09-27T15:51:40.439Z,20.00
2022-09-27T15:55:03.575Z,16.63
2022-09-27T15:58:28.138Z,18.38
2022-09-27T16:02:17.698Z,14.10
2022-09-27T16:05:40.369Z,18.17
2022-09-27T16:09:09.385Z,17.02
2022-09-27T16:12:39.672Z,22.38
2022-09-27T16:16:03.456Z,16.40
2022-09-27T16:19:25.660Z,15.20
2022-09-27T16:22:47.880Z,17.55
2022-09-27T16:26:10.663Z,18.15
2022-09-27T16:29:32.979Z,16.65
2022-09-27T16:32:56.065Z,18.25
2022-09-27T16:36:23.306Z,18.02
2022-09-27T16:39:45.558Z,17.02
2022-09-27T16:43:09.129Z,17.27
2022-09-27T16:46:33.103Z,19.08
2022-09-27T16:50:14.431Z,19.48
2022-09-27T16:53:37.109Z,19.95
2022-09-27T16:57:00.243Z,22.40
2022-09-27T17:00:22.547Z,18.08
2022-09-27T17:03:57.297Z,18.27
2022-09-27T17:07:21.421Z,21.17
2022-09-27T17:10:47.015Z,19.90
2022-09-27T17:14:17.000Z,19.73
2022-09-27T17:17:44.031Z,24.83
2022-09-27T17:21:09.117Z,21.58
2022-09-27T17:24:31.495Z,33.58
2022-09-27T17:27:54.455Z,41.20
2022-09-27T17:31:18.941Z,56.28
2022-09-27T17:34:44.323Z,50.10
2022-09-27T17:38:06.801Z,26.55
2022-09-27T17:41:29.877Z,25.88
2022-09-27T17:44:51.893Z,24.85
2022-09-27T17:48:46.547Z,25.60
2022-09-27T17:52:08.682Z,24.77
2022-09-27T17:55:31.115Z,24.40
2022-09-27T17:58:55.301Z,27.33
2022-09-27T18:02:17.551Z,26.23
2022-09-27T18:05:39.595Z,26.77
2022-09-27T18:09:02.357Z,28.10
2022-09-27T18:12:31.834Z,24.75
2022-09-27T18:16:00.808Z,30.33
2022-09-27T18:19:25.017Z,24.90
2022-09-27T18:22:48.119Z,28.27
2022-09-27T18:26:14.013Z,27.00
2022-09-27T18:29:36.068Z,26.33
2022-09-27T18:32:58.069Z,27.67
2022-09-27T18:36:25.301Z,27.23
2022-09-27T18:39:47.729Z,26.05
2022-09-27T18:43:10.629Z,27.52
2022-09-27T18:46:36.461Z,26.02
2022-09-27T18:49:59.721Z,28.60
2022-09-27T18:53:21.966Z,26.63
2022-09-27T18:56:44.499Z,24.67
2022-09-27T19:00:07.316Z,26.27
2022-09-27T19:03:30.699Z,25.35
2022-09-27T19:06:54.428Z,22.95
2022-09-27T19:10:16.656Z,24.75
2022-09-27T19:13:50.939Z,23.88
2022-09-27T19:17:13.956Z,25.73
2022-09-27T19:20:36.942Z,25.67
2022-09-27T19:23:59.525Z,28.25
2022-09-27T19:27:21.801Z,28.45
2022-09-27T19:30:45.580Z,24.60
2022-09-27T19:34:07.637Z,30.83
2022-09-27T19:37:30.061Z,28.40
2022-09-27T19:40:55.470Z,30.42
2022-09-27T19:44:17.727Z,29.80
2022-09-27T19:47:40.053Z,28.65
2022-09-27T19:51:02.555Z,29.63
2022-09-27T19:54:24.647Z,26.50
2022-09-27T19:57:48.019Z,28.30
2022-09-27T20:01:19.332Z,29.63
2022-09-27T20:04:41.465Z,28.42
2022-09-27T20:08:04.075Z,28.23
2022-09-27T20:11:27.541Z,29.55
2022-09-27T20:14:50.454Z,24.17
2022-09-27T20:18:16.053Z,30.90
2022-09-27T20:21:38.684Z,32.05
2022-09-27T20:25:01.015Z,29.45
2022-09-27T20:28:23.007Z,34.58
2022-09-27T20:32:03.256Z,35.65
2022-09-27T20:35:27.315Z,36.17
2022-09-27T20:39:02.479Z,37.30
2022-09-27T20:42:26.862Z,36.75
2022-09-27T20:45:49.077Z,44.28
2022-09-27T20:49:15.766Z,36.38
2022-09-27T20:52:38.296Z,38.05
2022-09-27T20:56:05.163Z,35.83
2022-09-27T20:59:28.207Z,39.75
2022-09-27T21:02:50.439Z,35.88
2022-09-27T21:06:14.216Z,30.55
2022-09-27T21:09:38.758Z,32.80
2022-09-27T21:13:00.848Z,33.58
2022-09-27T21:16:26.256Z,34.88
2022-09-27T21:19:49.613Z,32.00
2022-09-27T21:23:11.906Z,32.45
2022-09-27T21:26:35.100Z,36.28
2022-09-27T21:30:00.955Z,32.35
2022-09-27T21:33:26.751Z,30.20
2022-09-27T21:36:49.019Z,31.95
2022-09-27T21:40:11.139Z,32.40
2022-09-27T21:43:37.886Z,29.17
2022-09-27T21:47:00.343Z,29.98
2022-09-27T21:50:23.198Z,27.23
2022-09-27T21:53:54.215Z,26.67
2022-09-27T21:57:17.391Z,27.77
2022-09-27T22:00:39.493Z,28.70
2022-09-27T22:04:02.770Z,25.35
2022-09-27T22:07:24.758Z,22.88
2022-09-27T22:10:46.839Z,20.40
2022-09-27T22:14:30.524Z,22.58
2022-09-27T22:17:53.952Z,25.95
2022-09-27T22:21:25.008Z,19.35
2022-09-27T22:24:48.285Z,21.65
2022-09-27T22:28:14.542Z,16.02
2022-09-27T22:31:37.350Z,16.33
2022-09-27T22:34:59.369Z,16.23
2022-09-27T22:38:21.334Z,14.65
2022-09-27T22:41:43.306Z,14.68
2022-09-27T22:45:06.187Z,14.70
2022-09-27T22:48:29.397Z,14.90
2022-09-27T22:51:51.405Z,13.45
2022-09-27T22:55:13.921Z,11.05
2022-09-27T23:02:14.794Z,14.00
2022-09-27T23:05:36.832Z,13.63
2022-09-27T23:09:00.195Z,13.18
2022-09-27T23:12:22.408Z,14.38
2022-09-27T23:15:44.514Z,14.93
2022-09-27T23:19:07.717Z,14.05
2022-09-27T23:22:32.957Z,15.98
2022-09-27T23:26:03.380Z,14.82
2022-09-27T23:29:25.374Z,13.82
2022-09-27T23:33:03.114Z,15.93
2022-09-27T23:36:27.702Z,13.40
2022-09-27T23:39:49.855Z,11.60
2022-09-27T23:43:12.000Z,15.82
2022-09-27T23:46:34.058Z,11.48
2022-09-27T23:49:58.972Z,12.75
2022-09-27T23:53:22.426Z,11.05
2022-09-27T23:56:46.808Z,12.88
